sensor_id;sensor_type;location;lat;lon;timestamp;temperature;humidity
20546;DHT22;10431;50.228;9.112;2023-11-19T00:00:35;18.90;99.30
20546;DHT22;10431;50.228;9.112;2023-11-19T00:03:01;18.90;99.20
20546;DHT22;10431;50.228;9.112;2023-11-19T00:05:27;18.90;99.20
20546;DHT22;10431;50.228;9.112;2023-11-19T00:07:55;18.90;99.20
20546;DHT22;10431;50.228;9.112;2023-11-19T00:10:21;18.90;99.20
20546;DHT22;10431;50.228;9.112;2023-11-19T00:12:48;19.00;99.20
20546;DHT22;10431;50.228;9.112;2023-11-19T00:15:18;18.90;99.10
20546;DHT22;10431;50.228;9.112;2023-11-19T00:17:45;18.90;99.10
20546;DHT22;10431;50.228;9.112;2023-11-19T00:20:13;18.90;99.10
20546;DHT22;10431;50.228;9.112;2023-11-19T00:22:40;18.90;99.10
20546;DHT22;10431;50.228;9.112;2023-11-19T00:25:10;18.90;99.10
20546;DHT22;10431;50.228;9.112;2023-11-19T00:27:37;18.90;99.10
20546;DHT22;10431;50.228;9.112;2023-11-19T00:30:05;18.90;99.10
20546;DHT22;10431;50.228;9.112;2023-11-19T00:32:33;19.00;99.10
20546;DHT22;10431;50.228;9.112;2023-11-19T00:35:00;18.90;99.10
20546;DHT22;10431;50.228;9.112;2023-11-19T00:37:26;18.90;99.10
20546;DHT22;10431;50.228;9.112;2023-11-19T00:39:52;18.90;99.10
20546;DHT22;10431;50.228;9.112;2023-11-19T00:42:19;18.90;99.10
20546;DHT22;10431;50.228;9.112;2023-11-19T00:44:45;18.90;99.10
20546;DHT22;10431;50.228;9.112;2023-11-19T00:47:12;18.90;99.10
20546;DHT22;10431;50.228;9.112;2023-11-19T00:49:38;18.90;99.10
20546;DHT22;10431;50.228;9.112;2023-11-19T00:52:05;18.90;99.10
20546;DHT22;10431;50.228;9.112;2023-11-19T00:54:32;18.90;99.10
20546;DHT22;10431;50.228;9.112;2023-11-19T00:56:59;18.90;99.10
20546;DHT22;10431;50.228;9.112;2023-11-19T00:59:25;18.90;99.10
20546;DHT22;10431;50.228;9.112;2023-11-19T01:01:51;18.90;99.10
20546;DHT22;10431;50.228;9.112;2023-11-19T01:04:17;18.90;99.10
20546;DHT22;10431;50.228;9.112;2023-11-19T01:06:43;18.90;99.10
20546;DHT22;10431;50.228;9.112;2023-11-19T01:09:10;18.90;99.10
20546;DHT22;10431;50.228;9.112;2023-11-19T01:11:36;18.90;99.10
20546;DHT22;10431;50.228;9.112;2023-11-19T01:14:03;18.90;99.10
20546;DHT22;10431;50.228;9.112;2023-11-19T01:16:29;18.90;99.10
20546;DHT22;10431;50.228;9.112;2023-11-19T01:18:55;18.90;99.10
20546;DHT22;10431;50.228;9.112;2023-11-19T01:21:22;18.90;99.10
20546;DHT22;10431;50.228;9.112;2023-11-19T01:23:48;18.90;99.10
20546;DHT22;10431;50.228;9.112;2023-11-19T01:26:15;18.90;99.10
20546;DHT22;10431;50.228;9.112;2023-11-19T01:28:41;18.90;99.10
20546;DHT22;10431;50.228;9.112;2023-11-19T01:31:11;18.90;99.20
20546;DHT22;10431;50.228;9.112;2023-11-19T01:33:39;18.90;99.10
20546;DHT22;10431;50.228;9.112;2023-11-19T01:36:06;18.90;99.10
20546;DHT22;10431;50.228;9.112;2023-11-19T01:38:35;18.90;99.10
20546;DHT22;10431;50.228;9.112;2023-11-19T01:41:02;18.90;99.10
20546;DHT22;10431;50.228;9.112;2023-11-19T01:43:33;18.90;99.10
20546;DHT22;10431;50.228;9.112;2023-11-19T01:46:01;18.90;99.20
20546;DHT22;10431;50.228;9.112;2023-11-19T01:48:28;18.90;99.20
20546;DHT22;10431;50.228;9.112;2023-11-19T01:50:55;18.90;99.10
20546;DHT22;10431;50.228;9.112;2023-11-19T01:53:21;18.90;99.10
20546;DHT22;10431;50.228;9.112;2023-11-19T01:55:48;18.90;99.20
20546;DHT22;10431;50.228;9.112;2023-11-19T01:58:15;18.90;99.20
20546;DHT22;10431;50.228;9.112;2023-11-19T02:00:43;18.90;99.20
20546;DHT22;10431;50.228;9.112;2023-11-19T02:03:10;18.90;99.20
20546;DHT22;10431;50.228;9.112;2023-11-19T02:05:38;18.90;99.20
20546;DHT22;10431;50.228;9.112;2023-11-19T02:08:05;18.90;99.20
20546;DHT22;10431;50.228;9.112;2023-11-19T02:10:31;18.90;99.20
20546;DHT22;10431;50.228;9.112;2023-11-19T02:12:58;18.90;99.20
20546;DHT22;10431;50.228;9.112;2023-11-19T02:15:25;18.90;99.30
20546;DHT22;10431;50.228;9.112;2023-11-19T02:17:51;18.90;99.20
20546;DHT22;10431;50.228;9.112;2023-11-19T02:20:18;18.90;99.20
20546;DHT22;10431;50.228;9.112;2023-11-19T02:22:49;18.90;99.20
20546;DHT22;10431;50.228;9.112;2023-11-19T02:25:25;18.90;99.20
20546;DHT22;10431;50.228;9.112;2023-11-19T02:27:56;18.90;99.20
20546;DHT22;10431;50.228;9.112;2023-11-19T02:30:24;18.90;99.20
20546;DHT22;10431;50.228;9.112;2023-11-19T02:32:58;18.90;99.20
20546;DHT22;10431;50.228;9.112;2023-11-19T02:35:27;18.90;99.20
20546;DHT22;10431;50.228;9.112;2023-11-19T02:37:57;18.90;99.20
20546;DHT22;10431;50.228;9.112;2023-11-19T02:40:24;18.90;99.20
20546;DHT22;10431;50.228;9.112;2023-11-19T02:42:53;18.90;99.20
20546;DHT22;10431;50.228;9.112;2023-11-19T02:45:25;18.90;99.20
20546;DHT22;10431;50.228;9.112;2023-11-19T02:47:54;18.90;99.20
20546;DHT22;10431;50.228;9.112;2023-11-19T02:50:21;18.90;99.20
20546;DHT22;10431;50.228;9.112;2023-11-19T02:52:55;18.90;99.20
20546;DHT22;10431;50.228;9.112;2023-11-19T02:55:24;18.90;99.20
20546;DHT22;10431;50.228;9.112;2023-11-19T02:57:51;18.90;99.20
20546;DHT22;10431;50.228;9.112;2023-11-19T03:00:20;18.90;99.20
20546;DHT22;10431;50.228;9.112;2023-11-19T03:02:51;18.90;99.20
20546;DHT22;10431;50.228;9.112;2023-11-19T03:05:31;18.90;99.20
20546;DHT22;10431;50.228;9.112;2023-11-19T03:07:57;18.90;99.20
20546;DHT22;10431;50.228;9.112;2023-11-19T03:10:23;18.90;99.20
20546;DHT22;10431;50.228;9.112;2023-11-19T03:12:50;18.90;99.20
20546;DHT22;10431;50.228;9.112;2023-11-19T03:15:16;18.90;99.20
20546;DHT22;10431;50.228;9.112;2023-11-19T03:17:42;18.90;99.20
20546;DHT22;10431;50.228;9.112;2023-11-19T03:20:11;18.90;99.20
20546;DHT22;10431;50.228;9.112;2023-11-19T03:22:43;18.90;99.20
20546;DHT22;10431;50.228;9.112;2023-11-19T03:25:10;18.90;99.20
20546;DHT22;10431;50.228;9.112;2023-11-19T03:27:37;18.90;99.20
20546;DHT22;10431;50.228;9.112;2023-11-19T03:30:05;18.90;99.20
20546;DHT22;10431;50.228;9.112;2023-11-19T03:32:33;18.90;99.20
20546;DHT22;10431;50.228;9.112;2023-11-19T03:35:05;18.90;99.20
20546;DHT22;10431;50.228;9.112;2023-11-19T03:37:33;18.90;99.20
20546;DHT22;10431;50.228;9.112;2023-11-19T03:39:59;18.90;99.20
20546;DHT22;10431;50.228;9.112;2023-11-19T03:42:29;18.90;99.20
20546;DHT22;10431;50.228;9.112;2023-11-19T03:44:59;18.90;99.20
20546;DHT22;10431;50.228;9.112;2023-11-19T03:47:26;18.90;99.20
20546;DHT22;10431;50.228;9.112;2023-11-19T03:49:52;18.90;99.20
20546;DHT22;10431;50.228;9.112;2023-11-19T03:52:19;18.90;99.20
20546;DHT22;10431;50.228;9.112;2023-11-19T03:54:45;18.90;99.20
20546;DHT22;10431;50.228;9.112;2023-11-19T03:57:12;18.90;99.20
20546;DHT22;10431;50.228;9.112;2023-11-19T03:59:39;18.90;99.20
20546;DHT22;10431;50.228;9.112;2023-11-19T04:02:05;18.90;99.20
20546;DHT22;10431;50.228;9.112;2023-11-19T04:04:32;18.90;99.20
20546;DHT22;10431;50.228;9.112;2023-11-19T04:07:00;18.90;99.20
20546;DHT22;10431;50.228;9.112;2023-11-19T04:09:27;18.90;99.20
20546;DHT22;10431;50.228;9.112;2023-11-19T04:11:53;18.90;99.20
20546;DHT22;10431;50.228;9.112;2023-11-19T04:14:19;18.90;99.20
20546;DHT22;10431;50.228;9.112;2023-11-19T04:16:45;18.90;99.20
20546;DHT22;10431;50.228;9.112;2023-11-19T04:19:12;18.90;99.20
20546;DHT22;10431;50.228;9.112;2023-11-19T04:21:42;18.90;99.20
20546;DHT22;10431;50.228;9.112;2023-11-19T04:24:09;18.90;99.30
20546;DHT22;10431;50.228;9.112;2023-11-19T04:26:45;18.90;99.20
20546;DHT22;10431;50.228;9.112;2023-11-19T04:29:12;18.90;99.20
20546;DHT22;10431;50.228;9.112;2023-11-19T04:31:39;18.90;99.20
20546;DHT22;10431;50.228;9.112;2023-11-19T04:34:06;18.90;99.20
20546;DHT22;10431;50.228;9.112;2023-11-19T04:36:34;18.90;99.30
20546;DHT22;10431;50.228;9.112;2023-11-19T04:39:01;18.90;99.60
20546;DHT22;10431;50.228;9.112;2023-11-19T04:41:27;18.90;99.20
20546;DHT22;10431;50.228;9.112;2023-11-19T04:43:54;18.90;99.20
20546;DHT22;10431;50.228;9.112;2023-11-19T04:46:20;18.90;99.20
20546;DHT22;10431;50.228;9.112;2023-11-19T04:48:47;18.90;99.20
20546;DHT22;10431;50.228;9.112;2023-11-19T04:51:13;18.90;99.20
20546;DHT22;10431;50.228;9.112;2023-11-19T04:53:39;18.90;99.30
20546;DHT22;10431;50.228;9.112;2023-11-19T04:56:09;18.90;99.30
20546;DHT22;10431;50.228;9.112;2023-11-19T04:58:36;18.90;99.30
20546;DHT22;10431;50.228;9.112;2023-11-19T05:01:06;18.90;99.30
20546;DHT22;10431;50.228;9.112;2023-11-19T05:03:32;18.90;99.30
20546;DHT22;10431;50.228;9.112;2023-11-19T05:05:58;18.90;99.30
20546;DHT22;10431;50.228;9.112;2023-11-19T05:08:25;18.90;99.30
20546;DHT22;10431;50.228;9.112;2023-11-19T05:10:51;18.90;99.30
20546;DHT22;10431;50.228;9.112;2023-11-19T05:13:17;18.90;99.30
20546;DHT22;10431;50.228;9.112;2023-11-19T05:15:44;18.90;99.30
20546;DHT22;10431;50.228;9.112;2023-11-19T05:18:10;18.90;99.30
20546;DHT22;10431;50.228;9.112;2023-11-19T05:20:36;18.90;99.30
20546;DHT22;10431;50.228;9.112;2023-11-19T05:23:02;18.90;99.30
20546;DHT22;10431;50.228;9.112;2023-11-19T05:25:28;18.90;99.30
20546;DHT22;10431;50.228;9.112;2023-11-19T05:27:54;18.90;99.30
20546;DHT22;10431;50.228;9.112;2023-11-19T05:30:21;18.90;99.30
20546;DHT22;10431;50.228;9.112;2023-11-19T05:32:47;18.90;99.30
20546;DHT22;10431;50.228;9.112;2023-11-19T05:35:13;18.90;99.30
20546;DHT22;10431;50.228;9.112;2023-11-19T05:37:40;18.90;99.30
20546;DHT22;10431;50.228;9.112;2023-11-19T05:40:06;18.90;99.30
20546;DHT22;10431;50.228;9.112;2023-11-19T05:42:41;18.90;99.30
20546;DHT22;10431;50.228;9.112;2023-11-19T05:45:08;18.90;99.30
20546;DHT22;10431;50.228;9.112;2023-11-19T05:47:35;18.90;99.30
20546;DHT22;10431;50.228;9.112;2023-11-19T05:50:02;18.90;99.30
20546;DHT22;10431;50.228;9.112;2023-11-19T05:52:28;18.90;99.30
20546;DHT22;10431;50.228;9.112;2023-11-19T05:55:02;18.90;99.30
20546;DHT22;10431;50.228;9.112;2023-11-19T05:57:31;18.90;99.30
20546;DHT22;10431;50.228;9.112;2023-11-19T05:59:57;18.90;99.30
20546;DHT22;10431;50.228;9.112;2023-11-19T06:02:25;18.90;99.30
20546;DHT22;10431;50.228;9.112;2023-11-19T06:04:51;18.90;99.30
20546;DHT22;10431;50.228;9.112;2023-11-19T06:07:17;18.90;99.30
20546;DHT22;10431;50.228;9.112;2023-11-19T06:09:43;18.90;99.30
20546;DHT22;10431;50.228;9.112;2023-11-19T06:12:09;18.90;99.30
20546;DHT22;10431;50.228;9.112;2023-11-19T06:14:36;18.90;99.30
20546;DHT22;10431;50.228;9.112;2023-11-19T06:17:02;18.90;99.30
20546;DHT22;10431;50.228;9.112;2023-11-19T06:19:31;18.90;99.30
20546;DHT22;10431;50.228;9.112;2023-11-19T06:21:57;18.90;99.30
20546;DHT22;10431;50.228;9.112;2023-11-19T06:24:23;18.90;99.30
20546;DHT22;10431;50.228;9.112;2023-11-19T06:26:49;18.90;99.30
20546;DHT22;10431;50.228;9.112;2023-11-19T06:29:15;18.90;99.30
20546;DHT22;10431;50.228;9.112;2023-11-19T06:31:45;19.00;99.40
20546;DHT22;10431;50.228;9.112;2023-11-19T06:34:14;19.00;99.40
20546;DHT22;10431;50.228;9.112;2023-11-19T06:36:41;19.00;99.40
20546;DHT22;10431;50.228;9.112;2023-11-19T06:39:10;19.00;99.30
20546;DHT22;10431;50.228;9.112;2023-11-19T06:41:37;19.00;99.30
20546;DHT22;10431;50.228;9.112;2023-11-19T06:44:06;19.00;99.30
20546;DHT22;10431;50.228;9.112;2023-11-19T06:46:32;19.00;99.30
20546;DHT22;10431;50.228;9.112;2023-11-19T06:48:58;19.00;99.30
20546;DHT22;10431;50.228;9.112;2023-11-19T06:51:24;19.00;99.30
20546;DHT22;10431;50.228;9.112;2023-11-19T06:53:50;19.10;99.30
20546;DHT22;10431;50.228;9.112;2023-11-19T06:56:21;19.00;99.20
20546;DHT22;10431;50.228;9.112;2023-11-19T06:58:48;19.10;99.20
20546;DHT22;10431;50.228;9.112;2023-11-19T07:01:15;19.10;99.20
20546;DHT22;10431;50.228;9.112;2023-11-19T07:03:41;19.10;99.20
20546;DHT22;10431;50.228;9.112;2023-11-19T07:06:08;19.10;99.20
20546;DHT22;10431;50.228;9.112;2023-11-19T07:08:34;19.10;99.20
20546;DHT22;10431;50.228;9.112;2023-11-19T07:11:00;19.10;99.20
20546;DHT22;10431;50.228;9.112;2023-11-19T07:13:27;19.10;99.20
20546;DHT22;10431;50.228;9.112;2023-11-19T07:15:56;19.10;99.20
20546;DHT22;10431;50.228;9.112;2023-11-19T07:18:22;19.10;99.20
20546;DHT22;10431;50.228;9.112;2023-11-19T07:20:48;19.10;99.20
20546;DHT22;10431;50.228;9.112;2023-11-19T07:23:15;19.10;99.20
20546;DHT22;10431;50.228;9.112;2023-11-19T07:25:43;19.10;99.20
20546;DHT22;10431;50.228;9.112;2023-11-19T07:28:10;19.10;99.20
20546;DHT22;10431;50.228;9.112;2023-11-19T07:30:38;19.10;99.20
20546;DHT22;10431;50.228;9.112;2023-11-19T07:33:04;19.10;99.20
20546;DHT22;10431;50.228;9.112;2023-11-19T07:35:31;19.10;99.20
20546;DHT22;10431;50.228;9.112;2023-11-19T07:37:57;19.10;99.20
20546;DHT22;10431;50.228;9.112;2023-11-19T07:40:24;19.10;99.20
20546;DHT22;10431;50.228;9.112;2023-11-19T07:42:50;19.10;99.20
20546;DHT22;10431;50.228;9.112;2023-11-19T07:45:17;19.10;99.30
20546;DHT22;10431;50.228;9.112;2023-11-19T07:47:44;19.10;99.30
20546;DHT22;10431;50.228;9.112;2023-11-19T07:50:13;19.10;99.30
20546;DHT22;10431;50.228;9.112;2023-11-19T07:52:42;19.10;99.30
20546;DHT22;10431;50.228;9.112;2023-11-19T07:55:08;19.10;99.30
20546;DHT22;10431;50.228;9.112;2023-11-19T07:57:35;19.10;99.60
20546;DHT22;10431;50.228;9.112;2023-11-19T08:00:01;19.10;99.30
20546;DHT22;10431;50.228;9.112;2023-11-19T08:02:28;19.10;99.30
20546;DHT22;10431;50.228;9.112;2023-11-19T08:04:54;19.10;99.30
20546;DHT22;10431;50.228;9.112;2023-11-19T08:07:21;19.10;99.30
20546;DHT22;10431;50.228;9.112;2023-11-19T08:09:48;19.00;99.30
20546;DHT22;10431;50.228;9.112;2023-11-19T08:12:14;19.10;99.40
20546;DHT22;10431;50.228;9.112;2023-11-19T08:14:43;19.00;99.40
20546;DHT22;10431;50.228;9.112;2023-11-19T08:17:10;19.00;99.40
20546;DHT22;10431;50.228;9.112;2023-11-19T08:19:36;19.00;99.40
20546;DHT22;10431;50.228;9.112;2023-11-19T08:22:02;19.00;99.50
20546;DHT22;10431;50.228;9.112;2023-11-19T08:24:29;18.90;99.50
20546;DHT22;10431;50.228;9.112;2023-11-19T08:26:55;19.00;99.50
20546;DHT22;10431;50.228;9.112;2023-11-19T08:29:21;18.90;99.50
20546;DHT22;10431;50.228;9.112;2023-11-19T08:31:47;18.90;99.50
20546;DHT22;10431;50.228;9.112;2023-11-19T08:34:13;18.90;99.50
20546;DHT22;10431;50.228;9.112;2023-11-19T08:36:40;18.90;99.50
20546;DHT22;10431;50.228;9.112;2023-11-19T08:39:06;18.80;99.50
20546;DHT22;10431;50.228;9.112;2023-11-19T08:41:34;18.50;99.90
20546;DHT22;10431;50.228;9.112;2023-11-19T08:44:00;18.20;99.90
20546;DHT22;10431;50.228;9.112;2023-11-19T08:46:27;18.20;99.90
20546;DHT22;10431;50.228;9.112;2023-11-19T08:48:53;18.10;99.90
20546;DHT22;10431;50.228;9.112;2023-11-19T08:51:23;18.10;99.90
20546;DHT22;10431;50.228;9.112;2023-11-19T08:53:50;18.10;99.90
20546;DHT22;10431;50.228;9.112;2023-11-19T08:56:16;18.10;99.90
20546;DHT22;10431;50.228;9.112;2023-11-19T08:58:43;18.00;99.90
20546;DHT22;10431;50.228;9.112;2023-11-19T09:01:09;18.00;99.90
20546;DHT22;10431;50.228;9.112;2023-11-19T09:03:35;18.10;99.90
20546;DHT22;10431;50.228;9.112;2023-11-19T09:06:03;18.00;99.90
20546;DHT22;10431;50.228;9.112;2023-11-19T09:08:29;18.00;99.90
20546;DHT22;10431;50.228;9.112;2023-11-19T09:10:55;17.90;99.90
20546;DHT22;10431;50.228;9.112;2023-11-19T09:13:21;17.80;99.90
20546;DHT22;10431;50.228;9.112;2023-11-19T09:15:48;18.10;99.90
20546;DHT22;10431;50.228;9.112;2023-11-19T09:18:14;18.40;99.90
20546;DHT22;10431;50.228;9.112;2023-11-19T09:20:40;18.60;99.90
20546;DHT22;10431;50.228;9.112;2023-11-19T09:23:07;18.80;99.90
20546;DHT22;10431;50.228;9.112;2023-11-19T09:25:34;18.90;99.90
20546;DHT22;10431;50.228;9.112;2023-11-19T09:28:01;19.00;99.90
20546;DHT22;10431;50.228;9.112;2023-11-19T09:30:27;19.10;99.90
20546;DHT22;10431;50.228;9.112;2023-11-19T09:32:53;19.20;99.90
20546;DHT22;10431;50.228;9.112;2023-11-19T09:35:20;19.30;99.90
20546;DHT22;10431;50.228;9.112;2023-11-19T09:37:46;19.30;99.90
20546;DHT22;10431;50.228;9.112;2023-11-19T09:40:12;19.30;99.90
20546;DHT22;10431;50.228;9.112;2023-11-19T09:42:44;19.30;99.90
20546;DHT22;10431;50.228;9.112;2023-11-19T09:45:16;19.40;99.90
20546;DHT22;10431;50.228;9.112;2023-11-19T09:47:45;19.40;99.90
20546;DHT22;10431;50.228;9.112;2023-11-19T09:50:17;19.50;99.90
20546;DHT22;10431;50.228;9.112;2023-11-19T09:52:45;19.40;99.90
20546;DHT22;10431;50.228;9.112;2023-11-19T09:55:11;19.50;99.90
20546;DHT22;10431;50.228;9.112;2023-11-19T09:57:38;19.40;99.90
20546;DHT22;10431;50.228;9.112;2023-11-19T10:00:06;19.50;99.90
20546;DHT22;10431;50.228;9.112;2023-11-19T10:02:34;19.50;99.90
20546;DHT22;10431;50.228;9.112;2023-11-19T10:05:06;19.50;99.90
20546;DHT22;10431;50.228;9.112;2023-11-19T10:07:33;19.60;99.90
20546;DHT22;10431;50.228;9.112;2023-11-19T10:10:00;19.60;99.90
20546;DHT22;10431;50.228;9.112;2023-11-19T10:12:28;19.60;99.90
20546;DHT22;10431;50.228;9.112;2023-11-19T10:14:56;19.60;99.90
20546;DHT22;10431;50.228;9.112;2023-11-19T10:17:33;19.60;99.90
20546;DHT22;10431;50.228;9.112;2023-11-19T10:20:00;19.60;99.90
20546;DHT22;10431;50.228;9.112;2023-11-19T10:22:27;19.60;99.90
20546;DHT22;10431;50.228;9.112;2023-11-19T10:24:54;19.60;99.90
20546;DHT22;10431;50.228;9.112;2023-11-19T10:27:20;19.60;99.90
20546;DHT22;10431;50.228;9.112;2023-11-19T10:29:47;19.60;99.90
20546;DHT22;10431;50.228;9.112;2023-11-19T10:32:14;19.60;99.90
20546;DHT22;10431;50.228;9.112;2023-11-19T10:34:43;19.60;99.90
20546;DHT22;10431;50.228;9.112;2023-11-19T10:37:11;19.60;99.90
20546;DHT22;10431;50.228;9.112;2023-11-19T10:39:53;19.60;99.90
20546;DHT22;10431;50.228;9.112;2023-11-19T10:42:20;19.60;99.90
20546;DHT22;10431;50.228;9.112;2023-11-19T10:44:47;19.60;99.90
20546;DHT22;10431;50.228;9.112;2023-11-19T10:47:14;19.60;99.90
20546;DHT22;10431;50.228;9.112;2023-11-19T10:49:41;19.50;99.90
20546;DHT22;10431;50.228;9.112;2023-11-19T10:52:08;19.60;99.90
20546;DHT22;10431;50.228;9.112;2023-11-19T10:54:35;19.50;99.90
20546;DHT22;10431;50.228;9.112;2023-11-19T10:57:04;19.50;99.90
20546;DHT22;10431;50.228;9.112;2023-11-19T10:59:32;19.50;99.90
20546;DHT22;10431;50.228;9.112;2023-11-19T11:02:03;19.40;99.90
20546;DHT22;10431;50.228;9.112;2023-11-19T11:04:33;19.40;99.90
20546;DHT22;10431;50.228;9.112;2023-11-19T11:07:02;19.40;99.90
20546;DHT22;10431;50.228;9.112;2023-11-19T11:09:30;19.40;99.90
20546;DHT22;10431;50.228;9.112;2023-11-19T11:11:59;19.30;99.90
20546;DHT22;10431;50.228;9.112;2023-11-19T11:14:26;19.30;99.90
20546;DHT22;10431;50.228;9.112;2023-11-19T11:16:53;19.30;99.90
20546;DHT22;10431;50.228;9.112;2023-11-19T11:19:21;19.20;99.90
20546;DHT22;10431;50.228;9.112;2023-11-19T11:21:52;19.20;99.90
20546;DHT22;10431;50.228;9.112;2023-11-19T11:30:15;19.20;99.90
20546;DHT22;10431;50.228;9.112;2023-11-19T11:32:56;19.20;99.90
20546;DHT22;10431;50.228;9.112;2023-11-19T11:38:06;19.20;99.90
20546;DHT22;10431;50.228;9.112;2023-11-19T11:40:32;19.20;99.90
20546;DHT22;10431;50.228;9.112;2023-11-19T11:42:59;19.20;99.90
20546;DHT22;10431;50.228;9.112;2023-11-19T11:45:38;19.20;99.90
20546;DHT22;10431;50.228;9.112;2023-11-19T11:48:10;19.20;99.90
20546;DHT22;10431;50.228;9.112;2023-11-19T11:50:54;19.20;99.90
20546;DHT22;10431;50.228;9.112;2023-11-19T11:53:22;19.20;99.90
20546;DHT22;10431;50.228;9.112;2023-11-19T11:58:29;19.20;99.90
20546;DHT22;10431;50.228;9.112;2023-11-19T12:00:58;19.20;99.90
20546;DHT22;10431;50.228;9.112;2023-11-19T12:03:27;19.20;99.90
20546;DHT22;10431;50.228;9.112;2023-11-19T12:05:54;19.20;99.90
20546;DHT22;10431;50.228;9.112;2023-11-19T12:08:24;19.20;99.90
20546;DHT22;10431;50.228;9.112;2023-11-19T12:10:51;19.20;99.90
20546;DHT22;10431;50.228;9.112;2023-11-19T12:13:18;19.20;99.90
20546;DHT22;10431;50.228;9.112;2023-11-19T12:18:24;19.20;99.90
20546;DHT22;10431;50.228;9.112;2023-11-19T12:20:50;19.20;99.90
20546;DHT22;10431;50.228;9.112;2023-11-19T12:23:16;19.20;99.90
20546;DHT22;10431;50.228;9.112;2023-11-19T12:25:43;19.20;99.90
20546;DHT22;10431;50.228;9.112;2023-11-19T12:28:15;19.20;99.90
20546;DHT22;10431;50.228;9.112;2023-11-19T12:30:45;19.20;99.90
20546;DHT22;10431;50.228;9.112;2023-11-19T12:33:12;19.20;99.90
20546;DHT22;10431;50.228;9.112;2023-11-19T12:35:46;19.20;99.90
20546;DHT22;10431;50.228;9.112;2023-11-19T12:38:23;19.20;99.90
20546;DHT22;10431;50.228;9.112;2023-11-19T12:41:06;19.20;99.90
20546;DHT22;10431;50.228;9.112;2023-11-19T12:43:33;19.20;99.90
20546;DHT22;10431;50.228;9.112;2023-11-19T12:48:49;19.20;99.90
20546;DHT22;10431;50.228;9.112;2023-11-19T12:51:15;19.20;99.90
20546;DHT22;10431;50.228;9.112;2023-11-19T12:53:52;19.20;99.90
20546;DHT22;10431;50.228;9.112;2023-11-19T12:56:21;19.20;99.90
20546;DHT22;10431;50.228;9.112;2023-11-19T12:58:47;19.20;99.90
20546;DHT22;10431;50.228;9.112;2023-11-19T13:01:20;19.20;99.90
20546;DHT22;10431;50.228;9.112;2023-11-19T13:03:47;19.20;99.90
20546;DHT22;10431;50.228;9.112;2023-11-19T13:06:14;19.20;99.90
20546;DHT22;10431;50.228;9.112;2023-11-19T13:08:48;19.20;99.90
20546;DHT22;10431;50.228;9.112;2023-11-19T13:11:33;19.20;99.90
20546;DHT22;10431;50.228;9.112;2023-11-19T13:14:03;19.20;99.90
20546;DHT22;10431;50.228;9.112;2023-11-19T13:16:31;19.20;99.90
20546;DHT22;10431;50.228;9.112;2023-11-19T13:18:57;19.20;99.90
20546;DHT22;10431;50.228;9.112;2023-11-19T13:21:25;19.20;99.90
20546;DHT22;10431;50.228;9.112;2023-11-19T13:23:52;19.20;99.90
20546;DHT22;10431;50.228;9.112;2023-11-19T13:26:18;19.20;99.90
20546;DHT22;10431;50.228;9.112;2023-11-19T13:28:44;19.20;99.90
20546;DHT22;10431;50.228;9.112;2023-11-19T13:31:11;19.20;99.90
20546;DHT22;10431;50.228;9.112;2023-11-19T13:33:37;19.20;99.90
20546;DHT22;10431;50.228;9.112;2023-11-19T13:36:04;19.20;99.90
20546;DHT22;10431;50.228;9.112;2023-11-19T13:38:34;19.20;99.90
20546;DHT22;10431;50.228;9.112;2023-11-19T13:41:04;19.20;99.90
20546;DHT22;10431;50.228;9.112;2023-11-19T13:43:31;19.20;99.90
20546;DHT22;10431;50.228;9.112;2023-11-19T13:45:57;19.20;99.90
20546;DHT22;10431;50.228;9.112;2023-11-19T13:48:24;19.20;99.90
20546;DHT22;10431;50.228;9.112;2023-11-19T13:50:50;19.20;99.90
20546;DHT22;10431;50.228;9.112;2023-11-19T13:53:17;19.10;99.90
20546;DHT22;10431;50.228;9.112;2023-11-19T13:55:43;19.10;99.90
20546;DHT22;10431;50.228;9.112;2023-11-19T13:58:10;19.10;99.90
20546;DHT22;10431;50.228;9.112;2023-11-19T14:00:36;19.10;99.90
20546;DHT22;10431;50.228;9.112;2023-11-19T14:03:03;19.10;99.90
20546;DHT22;10431;50.228;9.112;2023-11-19T14:05:29;19.10;99.90
20546;DHT22;10431;50.228;9.112;2023-11-19T14:07:55;19.10;99.90
20546;DHT22;10431;50.228;9.112;2023-11-19T14:10:23;19.10;99.90
20546;DHT22;10431;50.228;9.112;2023-11-19T14:12:49;19.10;99.90
20546;DHT22;10431;50.228;9.112;2023-11-19T14:15:16;19.10;99.90
20546;DHT22;10431;50.228;9.112;2023-11-19T14:17:45;19.10;99.90
20546;DHT22;10431;50.228;9.112;2023-11-19T14:20:11;19.10;99.90
20546;DHT22;10431;50.228;9.112;2023-11-19T14:22:43;19.20;99.90
20546;DHT22;10431;50.228;9.112;2023-11-19T14:25:10;19.20;99.90
20546;DHT22;10431;50.228;9.112;2023-11-19T14:27:41;19.20;99.90
20546;DHT22;10431;50.228;9.112;2023-11-19T14:30:09;19.20;99.90
20546;DHT22;10431;50.228;9.112;2023-11-19T14:32:42;19.20;99.90
20546;DHT22;10431;50.228;9.112;2023-11-19T14:35:13;19.20;99.90
20546;DHT22;10431;50.228;9.112;2023-11-19T14:37:39;19.20;99.90
20546;DHT22;10431;50.228;9.112;2023-11-19T14:40:05;19.20;99.90
20546;DHT22;10431;50.228;9.112;2023-11-19T14:42:34;19.20;99.90
20546;DHT22;10431;50.228;9.112;2023-11-19T14:45:01;19.20;99.90
20546;DHT22;10431;50.228;9.112;2023-11-19T14:47:27;19.20;99.90
20546;DHT22;10431;50.228;9.112;2023-11-19T14:49:53;19.20;99.90
20546;DHT22;10431;50.228;9.112;2023-11-19T14:52:19;19.20;99.90
20546;DHT22;10431;50.228;9.112;2023-11-19T14:54:45;19.20;99.90
20546;DHT22;10431;50.228;9.112;2023-11-19T14:57:12;19.20;99.90
20546;DHT22;10431;50.228;9.112;2023-11-19T14:59:39;19.20;99.90
20546;DHT22;10431;50.228;9.112;2023-11-19T15:02:05;19.20;99.90
20546;DHT22;10431;50.228;9.112;2023-11-19T15:04:31;19.20;99.90
20546;DHT22;10431;50.228;9.112;2023-11-19T15:06:59;19.20;99.90
20546;DHT22;10431;50.228;9.112;2023-11-19T15:09:25;19.20;99.90
20546;DHT22;10431;50.228;9.112;2023-11-19T15:11:55;19.10;99.90
20546;DHT22;10431;50.228;9.112;2023-11-19T15:14:21;19.10;99.90
20546;DHT22;10431;50.228;9.112;2023-11-19T15:16:48;19.10;99.90
20546;DHT22;10431;50.228;9.112;2023-11-19T15:19:17;19.10;99.90
20546;DHT22;10431;50.228;9.112;2023-11-19T15:21:44;19.10;99.90
20546;DHT22;10431;50.228;9.112;2023-11-19T15:24:10;19.10;99.90
20546;DHT22;10431;50.228;9.112;2023-11-19T15:26:37;19.10;99.90
20546;DHT22;10431;50.228;9.112;2023-11-19T15:29:04;19.10;99.90
20546;DHT22;10431;50.228;9.112;2023-11-19T15:31:31;19.10;99.90
20546;DHT22;10431;50.228;9.112;2023-11-19T15:33:58;19.10;99.90
20546;DHT22;10431;50.228;9.112;2023-11-19T15:36:24;19.10;99.90
20546;DHT22;10431;50.228;9.112;2023-11-19T15:38:50;19.10;99.90
20546;DHT22;10431;50.228;9.112;2023-11-19T15:41:17;19.10;99.90
20546;DHT22;10431;50.228;9.112;2023-11-19T15:43:43;19.10;99.90
20546;DHT22;10431;50.228;9.112;2023-11-19T15:46:10;19.10;99.90
20546;DHT22;10431;50.228;9.112;2023-11-19T15:48:37;19.10;99.90